sensor_id;sensor_type;location;lat;lon;timestamp;temperature;humidity
67163;DHT22;54092;53.088;8.850;2023-07-31T00:01:43;15.90;99.90
67163;DHT22;54092;53.088;8.850;2023-07-31T00:04:08;15.90;99.90
67163;DHT22;54092;53.088;8.850;2023-07-31T00:06:34;15.90;99.90
67163;DHT22;54092;53.088;8.850;2023-07-31T00:08:59;16.00;99.90
67163;DHT22;54092;53.088;8.850;2023-07-31T00:11:25;16.00;99.90
67163;DHT22;54092;53.088;8.850;2023-07-31T00:13:52;16.00;99.90
67163;DHT22;54092;53.088;8.850;2023-07-31T00:16:18;16.00;99.90
67163;DHT22;54092;53.088;8.850;2023-07-31T00:18:44;16.00;99.90
67163;DHT22;54092;53.088;8.850;2023-07-31T00:21:09;16.00;99.90
67163;DHT22;54092;53.088;8.850;2023-07-31T00:23:35;16.10;99.90
67163;DHT22;54092;53.088;8.850;2023-07-31T00:26:00;16.10;99.90
67163;DHT22;54092;53.088;8.850;2023-07-31T00:28:26;16.10;99.90
67163;DHT22;54092;53.088;8.850;2023-07-31T00:30:52;16.00;99.90
67163;DHT22;54092;53.088;8.850;2023-07-31T00:33:18;16.00;99.90
67163;DHT22;54092;53.088;8.850;2023-07-31T00:35:43;16.00;99.90
67163;DHT22;54092;53.088;8.850;2023-07-31T00:38:09;16.00;99.90
67163;DHT22;54092;53.088;8.850;2023-07-31T00:40:35;16.00;99.90
67163;DHT22;54092;53.088;8.850;2023-07-31T00:43:02;16.00;99.90
67163;DHT22;54092;53.088;8.850;2023-07-31T00:45:28;16.00;99.90
67163;DHT22;54092;53.088;8.850;2023-07-31T00:47:54;16.00;99.90
67163;DHT22;54092;53.088;8.850;2023-07-31T00:50:19;16.00;99.90
67163;DHT22;54092;53.088;8.850;2023-07-31T00:52:45;15.90;99.90
67163;DHT22;54092;53.088;8.850;2023-07-31T00:55:11;16.00;99.90
67163;DHT22;54092;53.088;8.850;2023-07-31T00:57:36;15.90;99.90
67163;DHT22;54092;53.088;8.850;2023-07-31T01:00:03;15.90;99.90
67163;DHT22;54092;53.088;8.850;2023-07-31T01:02:29;15.90;99.90
67163;DHT22;54092;53.088;8.850;2023-07-31T01:04:55;15.80;99.90
67163;DHT22;54092;53.088;8.850;2023-07-31T01:10:16;15.80;99.90
67163;DHT22;54092;53.088;8.850;2023-07-31T01:12:45;15.80;99.90
67163;DHT22;54092;53.088;8.850;2023-07-31T01:15:12;15.80;99.90
67163;DHT22;54092;53.088;8.850;2023-07-31T01:17:39;15.80;99.90
67163;DHT22;54092;53.088;8.850;2023-07-31T01:20:23;15.80;99.90
67163;DHT22;54092;53.088;8.850;2023-07-31T01:28:20;15.80;99.90
67163;DHT22;54092;53.088;8.850;2023-07-31T01:30:48;15.80;99.90
67163;DHT22;54092;53.088;8.850;2023-07-31T01:33:15;15.80;99.90
67163;DHT22;54092;53.088;8.850;2023-07-31T01:35:44;15.90;99.90
67163;DHT22;54092;53.088;8.850;2023-07-31T01:38:10;15.90;99.90
67163;DHT22;54092;53.088;8.850;2023-07-31T01:40:35;15.80;99.90
67163;DHT22;54092;53.088;8.850;2023-07-31T01:43:01;15.90;99.90
67163;DHT22;54092;53.088;8.850;2023-07-31T01:45:27;15.90;99.90
67163;DHT22;54092;53.088;8.850;2023-07-31T01:47:52;15.90;99.90
67163;DHT22;54092;53.088;8.850;2023-07-31T01:50:18;15.80;99.90
67163;DHT22;54092;53.088;8.850;2023-07-31T01:52:43;15.80;99.90
67163;DHT22;54092;53.088;8.850;2023-07-31T01:55:09;15.70;99.90
67163;DHT22;54092;53.088;8.850;2023-07-31T01:57:36;15.70;99.90
67163;DHT22;54092;53.088;8.850;2023-07-31T02:00:02;15.60;99.90
67163;DHT22;54092;53.088;8.850;2023-07-31T02:02:27;15.50;99.90
67163;DHT22;54092;53.088;8.850;2023-07-31T02:04:53;15.40;99.90
67163;DHT22;54092;53.088;8.850;2023-07-31T02:07:18;15.30;99.90
67163;DHT22;54092;53.088;8.850;2023-07-31T02:09:44;15.30;99.90
67163;DHT22;54092;53.088;8.850;2023-07-31T02:12:09;15.20;99.90
67163;DHT22;54092;53.088;8.850;2023-07-31T02:14:35;15.10;99.90
67163;DHT22;54092;53.088;8.850;2023-07-31T02:17:00;15.10;99.90
67163;DHT22;54092;53.088;8.850;2023-07-31T02:19:26;15.10;99.90
67163;DHT22;54092;53.088;8.850;2023-07-31T02:21:51;15.00;99.90
67163;DHT22;54092;53.088;8.850;2023-07-31T02:24:17;15.00;99.90
67163;DHT22;54092;53.088;8.850;2023-07-31T02:26:42;15.00;99.90
67163;DHT22;54092;53.088;8.850;2023-07-31T02:29:08;15.00;99.90
67163;DHT22;54092;53.088;8.850;2023-07-31T02:31:34;14.90;99.90
67163;DHT22;54092;53.088;8.850;2023-07-31T02:33:59;14.90;99.90
67163;DHT22;54092;53.088;8.850;2023-07-31T02:36:25;14.90;99.90
67163;DHT22;54092;53.088;8.850;2023-07-31T02:38:51;14.90;99.90
67163;DHT22;54092;53.088;8.850;2023-07-31T02:41:16;14.90;99.90
67163;DHT22;54092;53.088;8.850;2023-07-31T02:43:42;14.90;99.90
67163;DHT22;54092;53.088;8.850;2023-07-31T02:46:07;14.90;99.90
67163;DHT22;54092;53.088;8.850;2023-07-31T02:48:33;14.90;99.90
67163;DHT22;54092;53.088;8.850;2023-07-31T02:50:58;14.90;99.90
67163;DHT22;54092;53.088;8.850;2023-07-31T02:53:24;14.90;99.90
67163;DHT22;54092;53.088;8.850;2023-07-31T02:55:49;14.80;99.90
67163;DHT22;54092;53.088;8.850;2023-07-31T02:58:15;14.80;99.90
67163;DHT22;54092;53.088;8.850;2023-07-31T03:00:44;14.80;99.90
67163;DHT22;54092;53.088;8.850;2023-07-31T03:03:10;14.80;99.90
67163;DHT22;54092;53.088;8.850;2023-07-31T03:05:35;14.80;99.90
67163;DHT22;54092;53.088;8.850;2023-07-31T03:08:01;14.80;99.90
67163;DHT22;54092;53.088;8.850;2023-07-31T03:10:27;14.80;99.90
67163;DHT22;54092;53.088;8.850;2023-07-31T03:12:52;14.80;99.90
67163;DHT22;54092;53.088;8.850;2023-07-31T03:15:18;14.80;99.90
67163;DHT22;54092;53.088;8.850;2023-07-31T03:17:43;14.80;99.90
67163;DHT22;54092;53.088;8.850;2023-07-31T03:20:09;14.70;99.90
67163;DHT22;54092;53.088;8.850;2023-07-31T03:22:35;14.80;99.90
67163;DHT22;54092;53.088;8.850;2023-07-31T03:25:02;14.80;99.90
67163;DHT22;54092;53.088;8.850;2023-07-31T03:27:27;14.70;99.90
67163;DHT22;54092;53.088;8.850;2023-07-31T03:29:53;14.80;99.90
67163;DHT22;54092;53.088;8.850;2023-07-31T03:32:19;14.80;99.90
67163;DHT22;54092;53.088;8.850;2023-07-31T03:34:44;14.70;99.90
67163;DHT22;54092;53.088;8.850;2023-07-31T03:37:10;14.70;99.90
67163;DHT22;54092;53.088;8.850;2023-07-31T03:39:35;14.70;99.90
67163;DHT22;54092;53.088;8.850;2023-07-31T03:42:01;14.70;99.90
67163;DHT22;54092;53.088;8.850;2023-07-31T03:44:26;14.70;99.90
67163;DHT22;54092;53.088;8.850;2023-07-31T03:46:52;14.70;99.90
67163;DHT22;54092;53.088;8.850;2023-07-31T03:49:18;14.70;99.90
67163;DHT22;54092;53.088;8.850;2023-07-31T03:51:43;14.70;99.90
67163;DHT22;54092;53.088;8.850;2023-07-31T03:54:09;14.70;99.90
67163;DHT22;54092;53.088;8.850;2023-07-31T03:56:34;14.70;99.90
67163;DHT22;54092;53.088;8.850;2023-07-31T03:59:00;14.70;99.90
67163;DHT22;54092;53.088;8.850;2023-07-31T04:01:26;14.70;99.90
67163;DHT22;54092;53.088;8.850;2023-07-31T04:03:52;14.70;99.90
67163;DHT22;54092;53.088;8.850;2023-07-31T04:06:17;14.70;99.90
67163;DHT22;54092;53.088;8.850;2023-07-31T04:08:45;14.70;99.90
67163;DHT22;54092;53.088;8.850;2023-07-31T04:11:11;14.70;99.90
67163;DHT22;54092;53.088;8.850;2023-07-31T04:13:38;14.70;99.90
67163;DHT22;54092;53.088;8.850;2023-07-31T04:16:04;14.70;99.90
67163;DHT22;54092;53.088;8.850;2023-07-31T04:18:29;14.70;99.90
67163;DHT22;54092;53.088;8.850;2023-07-31T04:20:56;14.70;99.90
67163;DHT22;54092;53.088;8.850;2023-07-31T04:23:26;14.70;99.90
67163;DHT22;54092;53.088;8.850;2023-07-31T04:25:52;14.70;99.90
67163;DHT22;54092;53.088;8.850;2023-07-31T04:28:18;14.70;99.90
67163;DHT22;54092;53.088;8.850;2023-07-31T04:30:43;14.70;99.90
67163;DHT22;54092;53.088;8.850;2023-07-31T04:33:09;14.80;99.90
67163;DHT22;54092;53.088;8.850;2023-07-31T04:35:34;14.80;99.90
67163;DHT22;54092;53.088;8.850;2023-07-31T04:38:00;14.80;99.90
67163;DHT22;54092;53.088;8.850;2023-07-31T04:40:25;14.80;99.90
67163;DHT22;54092;53.088;8.850;2023-07-31T04:42:51;14.80;99.90
67163;DHT22;54092;53.088;8.850;2023-07-31T04:45:17;14.90;99.90
67163;DHT22;54092;53.088;8.850;2023-07-31T04:47:42;14.90;99.90
67163;DHT22;54092;53.088;8.850;2023-07-31T04:50:08;14.90;99.90
67163;DHT22;54092;53.088;8.850;2023-07-31T04:52:34;14.80;99.90
67163;DHT22;54092;53.088;8.850;2023-07-31T04:54:59;14.80;99.90
67163;DHT22;54092;53.088;8.850;2023-07-31T04:57:25;14.90;99.90
67163;DHT22;54092;53.088;8.850;2023-07-31T04:59:50;14.80;99.90
67163;DHT22;54092;53.088;8.850;2023-07-31T05:02:16;14.90;99.90
67163;DHT22;54092;53.088;8.850;2023-07-31T05:04:41;14.90;99.90
67163;DHT22;54092;53.088;8.850;2023-07-31T05:07:07;14.90;99.90
67163;DHT22;54092;53.088;8.850;2023-07-31T05:09:32;14.90;99.90
67163;DHT22;54092;53.088;8.850;2023-07-31T05:11:58;14.90;99.90
67163;DHT22;54092;53.088;8.850;2023-07-31T05:14:23;14.90;99.90
67163;DHT22;54092;53.088;8.850;2023-07-31T05:16:49;14.90;99.90
67163;DHT22;54092;53.088;8.850;2023-07-31T05:19:14;14.90;99.90
67163;DHT22;54092;53.088;8.850;2023-07-31T05:21:40;15.00;99.90
67163;DHT22;54092;53.088;8.850;2023-07-31T05:24:06;15.00;99.90
67163;DHT22;54092;53.088;8.850;2023-07-31T05:26:31;14.90;99.90
67163;DHT22;54092;53.088;8.850;2023-07-31T05:28:57;14.90;99.90
67163;DHT22;54092;53.088;8.850;2023-07-31T05:31:23;15.00;99.90
67163;DHT22;54092;53.088;8.850;2023-07-31T05:33:50;15.00;99.90
67163;DHT22;54092;53.088;8.850;2023-07-31T05:36:16;14.90;99.90
67163;DHT22;54092;53.088;8.850;2023-07-31T05:38:41;14.90;99.90
67163;DHT22;54092;53.088;8.850;2023-07-31T05:41:09;14.90;99.90
67163;DHT22;54092;53.088;8.850;2023-07-31T05:43:35;14.90;99.90
67163;DHT22;54092;53.088;8.850;2023-07-31T05:46:00;15.00;99.90
67163;DHT22;54092;53.088;8.850;2023-07-31T05:48:26;15.00;99.90
67163;DHT22;54092;53.088;8.850;2023-07-31T05:50:52;15.00;99.90
67163;DHT22;54092;53.088;8.850;2023-07-31T05:53:17;15.10;99.90
67163;DHT22;54092;53.088;8.850;2023-07-31T05:55:43;15.10;99.90
67163;DHT22;54092;53.088;8.850;2023-07-31T05:58:08;15.10;99.90
67163;DHT22;54092;53.088;8.850;2023-07-31T06:00:34;15.10;99.90
67163;DHT22;54092;53.088;8.850;2023-07-31T06:02:59;15.10;99.90
67163;DHT22;54092;53.088;8.850;2023-07-31T06:05:25;15.20;99.90
67163;DHT22;54092;53.088;8.850;2023-07-31T06:07:51;15.20;99.90
67163;DHT22;54092;53.088;8.850;2023-07-31T06:10:17;15.20;99.90
67163;DHT22;54092;53.088;8.850;2023-07-31T06:12:42;15.20;99.90
67163;DHT22;54092;53.088;8.850;2023-07-31T06:15:08;15.20;99.90
67163;DHT22;54092;53.088;8.850;2023-07-31T06:17:34;15.20;99.90
67163;DHT22;54092;53.088;8.850;2023-07-31T06:19:59;15.20;99.90
67163;DHT22;54092;53.088;8.850;2023-07-31T06:22:25;15.20;99.90
67163;DHT22;54092;53.088;8.850;2023-07-31T06:24:50;15.20;99.90
67163;DHT22;54092;53.088;8.850;2023-07-31T06:27:16;15.20;99.90
67163;DHT22;54092;53.088;8.850;2023-07-31T06:29:42;15.30;99.90
67163;DHT22;54092;53.088;8.850;2023-07-31T06:32:08;15.30;99.90
67163;DHT22;54092;53.088;8.850;2023-07-31T06:34:33;15.30;99.90
67163;DHT22;54092;53.088;8.850;2023-07-31T06:36:59;15.40;99.90
67163;DHT22;54092;53.088;8.850;2023-07-31T06:39:24;15.40;99.90
67163;DHT22;54092;53.088;8.850;2023-07-31T06:41:50;15.40;99.90
67163;DHT22;54092;53.088;8.850;2023-07-31T06:44:15;15.40;99.90
67163;DHT22;54092;53.088;8.850;2023-07-31T06:46:42;15.50;99.90
67163;DHT22;54092;53.088;8.850;2023-07-31T06:49:08;15.40;99.90
67163;DHT22;54092;53.088;8.850;2023-07-31T06:51:33;15.50;99.90
67163;DHT22;54092;53.088;8.850;2023-07-31T06:53:59;15.40;99.90
67163;DHT22;54092;53.088;8.850;2023-07-31T06:56:24;15.50;99.90
67163;DHT22;54092;53.088;8.850;2023-07-31T06:58:51;15.50;99.90
67163;DHT22;54092;53.088;8.850;2023-07-31T07:01:16;15.50;99.90
67163;DHT22;54092;53.088;8.850;2023-07-31T07:03:42;15.50;99.90
67163;DHT22;54092;53.088;8.850;2023-07-31T07:06:08;15.50;99.90
67163;DHT22;54092;53.088;8.850;2023-07-31T07:08:33;15.50;99.90
67163;DHT22;54092;53.088;8.850;2023-07-31T07:10:59;15.50;99.90
67163;DHT22;54092;53.088;8.850;2023-07-31T07:13:24;15.60;99.90
67163;DHT22;54092;53.088;8.850;2023-07-31T07:15:50;15.60;99.90
67163;DHT22;54092;53.088;8.850;2023-07-31T07:18:17;15.60;99.90
67163;DHT22;54092;53.088;8.850;2023-07-31T07:20:53;15.70;99.90
67163;DHT22;54092;53.088;8.850;2023-07-31T07:23:19;15.70;99.90
67163;DHT22;54092;53.088;8.850;2023-07-31T07:25:45;15.70;99.90
67163;DHT22;54092;53.088;8.850;2023-07-31T07:28:11;15.80;99.90
67163;DHT22;54092;53.088;8.850;2023-07-31T07:30:36;15.80;99.90
67163;DHT22;54092;53.088;8.850;2023-07-31T07:33:02;15.80;99.90
67163;DHT22;54092;53.088;8.850;2023-07-31T07:35:28;15.80;99.90
67163;DHT22;54092;53.088;8.850;2023-07-31T07:37:53;15.80;99.90
67163;DHT22;54092;53.088;8.850;2023-07-31T07:40:20;15.80;99.90
67163;DHT22;54092;53.088;8.850;2023-07-31T07:42:45;15.80;99.90
67163;DHT22;54092;53.088;8.850;2023-07-31T07:45:11;15.80;99.90
67163;DHT22;54092;53.088;8.850;2023-07-31T07:47:40;15.90;99.90
67163;DHT22;54092;53.088;8.850;2023-07-31T07:50:06;15.90;99.90
67163;DHT22;54092;53.088;8.850;2023-07-31T07:52:32;15.90;99.90
67163;DHT22;54092;53.088;8.850;2023-07-31T07:54:57;15.90;99.90
67163;DHT22;54092;53.088;8.850;2023-07-31T07:57:22;16.00;99.90
67163;DHT22;54092;53.088;8.850;2023-07-31T07:59:48;16.00;99.90
67163;DHT22;54092;53.088;8.850;2023-07-31T08:02:14;16.00;99.90
67163;DHT22;54092;53.088;8.850;2023-07-31T08:04:39;16.00;99.90
67163;DHT22;54092;53.088;8.850;2023-07-31T08:07:05;16.00;99.90
67163;DHT22;54092;53.088;8.850;2023-07-31T08:09:30;16.00;99.90
67163;DHT22;54092;53.088;8.850;2023-07-31T08:11:56;16.10;99.90
67163;DHT22;54092;53.088;8.850;2023-07-31T08:14:27;16.10;99.90
67163;DHT22;54092;53.088;8.850;2023-07-31T08:16:53;16.10;99.90
67163;DHT22;54092;53.088;8.850;2023-07-31T08:19:18;16.10;99.90
67163;DHT22;54092;53.088;8.850;2023-07-31T08:21:44;16.20;99.90
67163;DHT22;54092;53.088;8.850;2023-07-31T08:24:09;16.20;99.90
67163;DHT22;54092;53.088;8.850;2023-07-31T08:26:35;16.20;99.90
67163;DHT22;54092;53.088;8.850;2023-07-31T08:29:01;16.30;99.90
67163;DHT22;54092;53.088;8.850;2023-07-31T08:31:26;16.30;99.90
67163;DHT22;54092;53.088;8.850;2023-07-31T08:33:52;16.40;99.90
67163;DHT22;54092;53.088;8.850;2023-07-31T08:36:18;16.40;99.90
67163;DHT22;54092;53.088;8.850;2023-07-31T08:38:45;16.40;99.90
67163;DHT22;54092;53.088;8.850;2023-07-31T08:41:10;16.50;99.90
67163;DHT22;54092;53.088;8.850;2023-07-31T08:43:36;16.60;99.90
67163;DHT22;54092;53.088;8.850;2023-07-31T08:46:03;16.60;99.90
67163;DHT22;54092;53.088;8.850;2023-07-31T08:48:29;16.60;99.90
67163;DHT22;54092;53.088;8.850;2023-07-31T08:50:56;16.60;99.90
67163;DHT22;54092;53.088;8.850;2023-07-31T08:53:21;16.70;99.90
67163;DHT22;54092;53.088;8.850;2023-07-31T08:55:48;16.70;99.90
67163;DHT22;54092;53.088;8.850;2023-07-31T08:58:14;16.80;99.90
67163;DHT22;54092;53.088;8.850;2023-07-31T09:00:41;16.80;99.90
67163;DHT22;54092;53.088;8.850;2023-07-31T09:03:12;16.80;99.90
67163;DHT22;54092;53.088;8.850;2023-07-31T09:05:38;16.80;99.90
67163;DHT22;54092;53.088;8.850;2023-07-31T09:08:07;16.90;99.90
67163;DHT22;54092;53.088;8.850;2023-07-31T09:10:34;17.00;99.90
67163;DHT22;54092;53.088;8.850;2023-07-31T09:13:00;17.00;99.90
67163;DHT22;54092;53.088;8.850;2023-07-31T09:15:27;17.00;99.90
67163;DHT22;54092;53.088;8.850;2023-07-31T09:18:01;17.00;99.90
67163;DHT22;54092;53.088;8.850;2023-07-31T09:20:27;16.90;99.90
67163;DHT22;54092;53.088;8.850;2023-07-31T09:22:52;16.90;99.90
67163;DHT22;54092;53.088;8.850;2023-07-31T09:25:20;16.90;99.90
67163;DHT22;54092;53.088;8.850;2023-07-31T09:27:57;16.90;99.90
67163;DHT22;54092;53.088;8.850;2023-07-31T09:30:23;16.80;99.90
67163;DHT22;54092;53.088;8.850;2023-07-31T09:32:50;16.80;99.90
67163;DHT22;54092;53.088;8.850;2023-07-31T09:35:22;16.80;99.90
67163;DHT22;54092;53.088;8.850;2023-07-31T09:37:52;16.80;99.90
67163;DHT22;54092;53.088;8.850;2023-07-31T09:40:29;16.90;99.90
67163;DHT22;54092;53.088;8.850;2023-07-31T09:43:00;16.80;99.90
67163;DHT22;54092;53.088;8.850;2023-07-31T09:45:26;16.80;99.90
67163;DHT22;54092;53.088;8.850;2023-07-31T09:47:52;16.80;99.90
67163;DHT22;54092;53.088;8.850;2023-07-31T09:50:20;16.80;99.90
67163;DHT22;54092;53.088;8.850;2023-07-31T09:52:46;16.90;99.90
67163;DHT22;54092;53.088;8.850;2023-07-31T09:55:12;16.90;99.90
67163;DHT22;54092;53.088;8.850;2023-07-31T09:57:40;16.90;99.90
67163;DHT22;54092;53.088;8.850;2023-07-31T10:00:07;17.00;99.90
67163;DHT22;54092;53.088;8.850;2023-07-31T10:02:35;17.00;99.90
67163;DHT22;54092;53.088;8.850;2023-07-31T10:05:02;17.20;99.90
67163;DHT22;54092;53.088;8.850;2023-07-31T10:07:30;17.30;99.90
67163;DHT22;54092;53.088;8.850;2023-07-31T10:09:58;17.30;99.90
67163;DHT22;54092;53.088;8.850;2023-07-31T10:12:26;17.30;99.90
67163;DHT22;54092;53.088;8.850;2023-07-31T10:14:54;17.20;99.90
67163;DHT22;54092;53.088;8.850;2023-07-31T10:17:24;17.20;99.90
67163;DHT22;54092;53.088;8.850;2023-07-31T10:19:49;17.20;99.90
67163;DHT22;54092;53.088;8.850;2023-07-31T10:22:16;17.20;99.90
67163;DHT22;54092;53.088;8.850;2023-07-31T10:24:45;17.20;99.90
67163;DHT22;54092;53.088;8.850;2023-07-31T10:27:12;17.20;99.90
67163;DHT22;54092;53.088;8.850;2023-07-31T10:29:38;17.20;99.90
67163;DHT22;54092;53.088;8.850;2023-07-31T10:32:06;17.30;99.90
67163;DHT22;54092;53.088;8.850;2023-07-31T10:34:35;17.30;99.90
67163;DHT22;54092;53.088;8.850;2023-07-31T10:37:39;17.30;99.90
67163;DHT22;54092;53.088;8.850;2023-07-31T10:40:07;17.40;99.90
67163;DHT22;54092;53.088;8.850;2023-07-31T10:42:35;17.50;99.90
67163;DHT22;54092;53.088;8.850;2023-07-31T10:45:07;17.50;99.90
67163;DHT22;54092;53.088;8.850;2023-07-31T10:47:43;17.50;99.90
67163;DHT22;54092;53.088;8.850;2023-07-31T10:52:37;17.50;99.90
67163;DHT22;54092;53.088;8.850;2023-07-31T10:55:25;17.50;99.90
67163;DHT22;54092;53.088;8.850;2023-07-31T10:57:52;17.50;99.90
67163;DHT22;54092;53.088;8.850;2023-07-31T11:00:38;17.40;99.90
67163;DHT22;54092;53.088;8.850;2023-07-31T11:03:09;17.40;99.90
67163;DHT22;54092;53.088;8.850;2023-07-31T11:06:00;17.40;99.90
67163;DHT22;54092;53.088;8.850;2023-07-31T11:08:32;17.50;99.90
67163;DHT22;54092;53.088;8.850;2023-07-31T11:13:30;17.60;99.90
67163;DHT22;54092;53.088;8.850;2023-07-31T11:15:56;17.80;99.90
67163;DHT22;54092;53.088;8.850;2023-07-31T11:18:21;17.90;99.90
67163;DHT22;54092;53.088;8.850;2023-07-31T11:20:47;17.90;99.90
67163;DHT22;54092;53.088;8.850;2023-07-31T11:23:15;17.80;99.90
67163;DHT22;54092;53.088;8.850;2023-07-31T11:25:40;17.80;99.90
67163;DHT22;54092;53.088;8.850;2023-07-31T11:28:09;17.90;99.90
67163;DHT22;54092;53.088;8.850;2023-07-31T11:30:35;17.90;99.90
67163;DHT22;54092;53.088;8.850;2023-07-31T11:33:02;17.90;99.90
67163;DHT22;54092;53.088;8.850;2023-07-31T11:35:45;18.00;99.90
67163;DHT22;54092;53.088;8.850;2023-07-31T11:38:12;18.00;99.90
67163;DHT22;54092;53.088;8.850;2023-07-31T11:40:46;18.00;99.90
67163;DHT22;54092;53.088;8.850;2023-07-31T11:43:11;18.00;99.90
67163;DHT22;54092;53.088;8.850;2023-07-31T11:45:41;18.10;99.90
67163;DHT22;54092;53.088;8.850;2023-07-31T11:48:10;18.00;99.90
67163;DHT22;54092;53.088;8.850;2023-07-31T11:50:35;18.00;99.90
67163;DHT22;54092;53.088;8.850;2023-07-31T11:53:07;18.00;99.90
67163;DHT22;54092;53.088;8.850;2023-07-31T11:55:34;18.00;99.90
67163;DHT22;54092;53.088;8.850;2023-07-31T11:58:00;18.00;99.90
67163;DHT22;54092;53.088;8.850;2023-07-31T12:00:27;18.00;99.90
67163;DHT22;54092;53.088;8.850;2023-07-31T12:02:53;18.20;99.90
67163;DHT22;54092;53.088;8.850;2023-07-31T12:05:19;18.20;99.90
67163;DHT22;54092;53.088;8.850;2023-07-31T12:07:53;18.30;99.90
67163;DHT22;54092;53.088;8.850;2023-07-31T12:13:01;18.30;99.90
67163;DHT22;54092;53.088;8.850;2023-07-31T12:18:03;18.30;99.90
67163;DHT22;54092;53.088;8.850;2023-07-31T12:20:30;18.30;99.90
67163;DHT22;54092;53.088;8.850;2023-07-31T12:22:56;18.20;99.90
67163;DHT22;54092;53.088;8.850;2023-07-31T12:25:22;18.30;99.90
67163;DHT22;54092;53.088;8.850;2023-07-31T12:27:50;18.30;99.90
67163;DHT22;54092;53.088;8.850;2023-07-31T12:30:33;18.20;99.90
67163;DHT22;54092;53.088;8.850;2023-07-31T12:33:13;18.20;99.90
67163;DHT22;54092;53.088;8.850;2023-07-31T12:35:44;18.30;99.90
67163;DHT22;54092;53.088;8.850;2023-07-31T12:38:11;18.20;99.90
67163;DHT22;54092;53.088;8.850;2023-07-31T12:40:38;18.20;99.90
67163;DHT22;54092;53.088;8.850;2023-07-31T12:43:05;18.20;99.90
67163;DHT22;54092;53.088;8.850;2023-07-31T12:45:31;18.20;99.90
67163;DHT22;54092;53.088;8.850;2023-07-31T12:47:58;18.30;99.90
67163;DHT22;54092;53.088;8.850;2023-07-31T12:50:24;18.30;99.90
67163;DHT22;54092;53.088;8.850;2023-07-31T12:52:49;18.30;99.90
67163;DHT22;54092;53.088;8.850;2023-07-31T12:55:15;18.30;99.90
67163;DHT22;54092;53.088;8.850;2023-07-31T12:57:40;18.40;99.90
67163;DHT22;54092;53.088;8.850;2023-07-31T13:00:07;18.40;99.90
67163;DHT22;54092;53.088;8.850;2023-07-31T13:02:33;18.50;99.90
67163;DHT22;54092;53.088;8.850;2023-07-31T13:04:58;18.50;99.90
67163;DHT22;54092;53.088;8.850;2023-07-31T13:07:24;18.60;99.90
67163;DHT22;54092;53.088;8.850;2023-07-31T13:09:50;18.60;99.90
67163;DHT22;54092;53.088;8.850;2023-07-31T13:12:16;18.70;99.90
67163;DHT22;54092;53.088;8.850;2023-07-31T13:14:41;18.70;99.90
67163;DHT22;54092;53.088;8.850;2023-07-31T13:17:07;18.70;99.90
67163;DHT22;54092;53.088;8.850;2023-07-31T13:19:32;18.70;99.90
67163;DHT22;54092;53.088;8.850;2023-07-31T13:21:58;18.60;99.90
67163;DHT22;54092;53.088;8.850;2023-07-31T13:24:23;18.60;99.90
67163;DHT22;54092;53.088;8.850;2023-07-31T13:26:49;18.60;99.90
67163;DHT22;54092;53.088;8.850;2023-07-31T13:29:14;18.60;99.90
67163;DHT22;54092;53.088;8.850;2023-07-31T13:31:40;18.60;99.90
67163;DHT22;54092;53.088;8.850;2023-07-31T13:34:06;18.70;99.90
67163;DHT22;54092;53.088;8.850;2023-07-31T13:36:31;18.70;99.90
67163;DHT22;54092;53.088;8.850;2023-07-31T13:38:59;18.70;99.90
67163;DHT22;54092;53.088;8.850;2023-07-31T13:41:24;18.70;99.90
67163;DHT22;54092;53.088;8.850;2023-07-31T13:43:50;18.60;99.90
67163;DHT22;54092;53.088;8.850;2023-07-31T13:46:15;18.60;99.90
67163;DHT22;54092;53.088;8.850;2023-07-31T13:48:41;18.50;99.90
67163;DHT22;54092;53.088;8.850;2023-07-31T13:51:06;18.50;99.90
67163;DHT22;54092;53.088;8.850;2023-07-31T13:53:32;18.50;99.90
67163;DHT22;54092;53.088;8.850;2023-07-31T13:55:57;18.60;99.90
67163;DHT22;54092;53.088;8.850;2023-07-31T13:58:23;18.60;99.90
67163;DHT22;54092;53.088;8.850;2023-07-31T14:00:48;18.50;99.90
67163;DHT22;54092;53.088;8.850;2023-07-31T14:03:14;18.40;99.90
67163;DHT22;54092;53.088;8.850;2023-07-31T14:05:40;18.30;99.90
67163;DHT22;54092;53.088;8.850;2023-07-31T14:08:05;18.20;99.90
67163;DHT22;54092;53.088;8.850;2023-07-31T14:10:31;18.20;99.90
67163;DHT22;54092;53.088;8.850;2023-07-31T14:12:56;18.20;99.90
67163;DHT22;54092;53.088;8.850;2023-07-31T14:15:22;18.20;99.90
67163;DHT22;54092;53.088;8.850;2023-07-31T14:17:47;18.30;99.90
67163;DHT22;54092;53.088;8.850;2023-07-31T14:20:13;18.30;99.90
67163;DHT22;54092;53.088;8.850;2023-07-31T14:22:38;18.40;99.90
67163;DHT22;54092;53.088;8.850;2023-07-31T14:25:04;18.40;99.90
67163;DHT22;54092;53.088;8.850;2023-07-31T14:27:30;18.50;99.90
67163;DHT22;54092;53.088;8.850;2023-07-31T14:29:56;18.50;99.90
67163;DHT22;54092;53.088;8.850;2023-07-31T14:32:22;18.50;99.90
67163;DHT22;54092;53.088;8.850;2023-07-31T14:34:49;18.60;99.90
67163;DHT22;54092;53.088;8.850;2023-07-31T14:37:14;18.70;99.90
67163;DHT22;54092;53.088;8.850;2023-07-31T14:39:40;18.70;99.90
67163;DHT22;54092;53.088;8.850;2023-07-31T14:42:05;18.70;99.90
67163;DHT22;54092;53.088;8.850;2023-07-31T14:44:31;18.70;99.90
67163;DHT22;54092;53.088;8.850;2023-07-31T14:46:56;18.80;99.90
67163;DHT22;54092;53.088;8.850;2023-07-31T14:49:22;18.80;99.90
67163;DHT22;54092;53.088;8.850;2023-07-31T14:51:47;18.80;99.90
67163;DHT22;54092;53.088;8.850;2023-07-31T14:54:13;18.90;99.90
67163;DHT22;54092;53.088;8.850;2023-07-31T14:56:38;18.80;99.90
67163;DHT22;54092;53.088;8.850;2023-07-31T14:59:04;18.80;99.90
67163;DHT22;54092;53.088;8.850;2023-07-31T15:01:29;18.70;99.90
67163;DHT22;54092;53.088;8.850;2023-07-31T15:03:55;18.70;99.90
67163;DHT22;54092;53.088;8.850;2023-07-31T15:06:20;18.70;99.90
67163;DHT22;54092;53.088;8.850;2023-07-31T15:08:46;18.70;99.90
67163;DHT22;54092;53.088;8.850;2023-07-31T15:11:11;18.70;99.90
67163;DHT22;54092;53.088;8.850;2023-07-31T15:13:37;18.70;99.90
67163;DHT22;54092;53.088;8.850;2023-07-31T15:16:03;18.70;99.90
67163;DHT22;54092;53.088;8.850;2023-07-31T15:18:28;18.60;99.90
67163;DHT22;54092;53.088;8.850;2023-07-31T15:20:54;18.50;99.90
67163;DHT22;54092;53.088;8.850;2023-07-31T15:23:19;18.50;99.90
67163;DHT22;54092;53.088;8.850;2023-07-31T15:25:45;18.50;99.90
67163;DHT22;54092;53.088;8.850;2023-07-31T15:28:10;18.30;99.90
67163;DHT22;54092;53.088;8.850;2023-07-31T15:30:36;18.30;99.90
67163;DHT22;54092;53.088;8.850;2023-07-31T15:33:03;18.30;99.90
67163;DHT22;54092;53.088;8.850;2023-07-31T15:35:28;18.20;99.90
67163;DHT22;54092;53.088;8.850;2023-07-31T15:37:54;18.10;99.90
67163;DHT22;54092;53.088;8.850;2023-07-31T15:40:19;18.00;99.90
67163;DHT22;54092;53.088;8.850;2023-07-31T15:42:45;17.90;99.90
67163;DHT22;54092;53.088;8.850;2023-07-31T15:45:10;17.80;99.90